Oceanflyer — WDG2922 — position and weather

sailwx.info

Track history (hours):
 
Tides and Currents Weather Stations Pressure Air Temp Water Temp Dewpoint Dewpoint Depression Visibility Wind Speed Wind Dir Waves Ship Positions

Oceanflyer

Owner: OceanFlyer LLC, Bellingham, WA. More information available from US FCC via Universal Licensing System and Coast Guard Vessel Documentation Center.

Last reported at 2018-Jul-22 00:43 UTC. Time now 2018-Jul-22 08:21 UTC.
Position N 50°36' W 127°05'.

Length 16 m.

Type: Pleasure craft. MMSI: 367520660.

Date/timePositionNaut miles runAvg speedWind from/ knotsBaromVisibWave heightAir tempDewpointWater temp
2018-Jul-22 00:43N 50°36' W 127°05'0 0.0
2018-Jul-22 00:28N 50°36' W 127°05'0 0.0
2018-Jul-21 23:58N 50°36' W 127°05'0 0.0
2018-Jul-21 23:28N 50°36' W 127°05'0 0.0
2018-Jul-21 22:58N 50°36' W 127°05'0 0.0
2018-Jul-21 22:28N 50°36' W 127°05'0 0.0
2018-Jul-21 21:58N 50°36' W 127°05'0 0.0
2018-Jul-21 21:22N 50°36' W 127°05'0 0.0
2018-Jul-21 20:58N 50°36' W 127°05'0 0.0
2018-Jul-21 20:28N 50°36' W 127°05'0 0.0
2018-Jul-21 19:58N 50°36' W 127°05'0 0.0
2018-Jul-21 19:28N 50°36' W 127°05'0 0.0
2018-Jul-21 18:49N 50°36' W 127°05'1 1.7
2018-Jul-21 18:30N 50°36' W 127°05'4 7.7
2018-Jul-21 18:00N 50°36' W 126°59'12 0.6
2018-Jul-20 20:01N 50°45' W 126°45'0 8.1
2018-Jul-20 20:00N 50°45' W 126°45'16 2.9
2018-Jul-20 14:24N 50°55' W 127°05'  
Track history (hours):
 
Tides and Currents Weather Stations Pressure Air Temp Water Temp Dewpoint Dewpoint Depression Visibility Wind Speed Wind Dir Waves Ship Positions

Oceanflyer

Owner: OceanFlyer LLC, Bellingham, WA. More information available from US FCC via Universal Licensing System and Coast Guard Vessel Documentation Center.

Last reported at 2018-Jul-22 00:43 UTC. Time now 2018-Jul-22 08:21 UTC.
Position N 50°36' W 127°05'.

Length 16 m.

Type: Pleasure craft. MMSI: 367520660.

Date/timePositionNaut miles runAvg speedWind from/ knotsBaromVisibWave heightAir tempDewpointWater temp
2018-Jul-22 00:43N 50°36' W 127°05'0 0.0
2018-Jul-22 00:28N 50°36' W 127°05'0 0.0
2018-Jul-21 23:58N 50°36' W 127°05'0 0.0
2018-Jul-21 23:28N 50°36' W 127°05'0 0.0
2018-Jul-21 22:58N 50°36' W 127°05'0 0.0
2018-Jul-21 22:28N 50°36' W 127°05'0 0.0
2018-Jul-21 21:58N 50°36' W 127°05'0 0.0
2018-Jul-21 21:22N 50°36' W 127°05'0 0.0
2018-Jul-21 20:58N 50°36' W 127°05'0 0.0
2018-Jul-21 20:28N 50°36' W 127°05'0 0.0
2018-Jul-21 19:58N 50°36' W 127°05'0 0.0
2018-Jul-21 19:28N 50°36' W 127°05'0 0.0
2018-Jul-21 18:49N 50°36' W 127°05'1 1.7
2018-Jul-21 18:30N 50°36' W 127°05'4 7.7
2018-Jul-21 18:00N 50°36' W 126°59'12 0.6
2018-Jul-20 20:01N 50°45' W 126°45'0 8.1
2018-Jul-20 20:00N 50°45' W 126°45'16 2.9
2018-Jul-20 14:24N 50°55' W 127°05'  

Dump ship's entire track history